sensor_id;sensor_type;location;lat;lon;timestamp;temperature;humidity
4695;DHT22;2361;49.540;8.390;2023-03-04T00:02:22;2.20;99.90
4695;DHT22;2361;49.540;8.390;2023-03-04T00:04:49;2.20;99.90
4695;DHT22;2361;49.540;8.390;2023-03-04T00:07:16;2.10;99.90
4695;DHT22;2361;49.540;8.390;2023-03-04T00:09:45;2.10;99.90
4695;DHT22;2361;49.540;8.390;2023-03-04T00:12:12;2.10;99.90
4695;DHT22;2361;49.540;8.390;2023-03-04T00:14:39;2.00;99.90
4695;DHT22;2361;49.540;8.390;2023-03-04T00:17:06;1.90;99.90
4695;DHT22;2361;49.540;8.390;2023-03-04T00:19:33;1.90;99.90
4695;DHT22;2361;49.540;8.390;2023-03-04T00:22:01;1.90;99.90
4695;DHT22;2361;49.540;8.390;2023-03-04T00:24:29;1.80;99.90
4695;DHT22;2361;49.540;8.390;2023-03-04T00:26:56;1.80;99.90
4695;DHT22;2361;49.540;8.390;2023-03-04T00:29:23;1.80;99.90
4695;DHT22;2361;49.540;8.390;2023-03-04T00:31:50;1.80;99.90
4695;DHT22;2361;49.540;8.390;2023-03-04T00:34:18;1.80;99.90
4695;DHT22;2361;49.540;8.390;2023-03-04T00:36:45;1.80;99.90
4695;DHT22;2361;49.540;8.390;2023-03-04T00:39:12;1.70;99.90
4695;DHT22;2361;49.540;8.390;2023-03-04T00:41:40;1.70;99.90
4695;DHT22;2361;49.540;8.390;2023-03-04T00:44:07;1.60;99.90
4695;DHT22;2361;49.540;8.390;2023-03-04T00:46:34;1.60;99.90
4695;DHT22;2361;49.540;8.390;2023-03-04T00:49:01;1.50;99.90
4695;DHT22;2361;49.540;8.390;2023-03-04T00:51:28;1.50;99.90
4695;DHT22;2361;49.540;8.390;2023-03-04T00:53:55;1.50;99.90
4695;DHT22;2361;49.540;8.390;2023-03-04T00:56:24;1.50;99.90
4695;DHT22;2361;49.540;8.390;2023-03-04T00:58:50;1.50;99.90
4695;DHT22;2361;49.540;8.390;2023-03-04T01:01:17;1.50;99.90
4695;DHT22;2361;49.540;8.390;2023-03-04T01:03:44;1.50;99.90
4695;DHT22;2361;49.540;8.390;2023-03-04T01:06:11;1.40;99.90
4695;DHT22;2361;49.540;8.390;2023-03-04T01:08:39;1.40;99.90
4695;DHT22;2361;49.540;8.390;2023-03-04T01:11:06;1.40;99.90
4695;DHT22;2361;49.540;8.390;2023-03-04T01:13:33;1.40;99.90
4695;DHT22;2361;49.540;8.390;2023-03-04T01:16:00;1.40;99.90
4695;DHT22;2361;49.540;8.390;2023-03-04T01:18:29;1.40;99.90
4695;DHT22;2361;49.540;8.390;2023-03-04T01:20:56;1.30;99.90
4695;DHT22;2361;49.540;8.390;2023-03-04T01:23:23;1.30;99.90
4695;DHT22;2361;49.540;8.390;2023-03-04T01:25:50;1.30;99.90
4695;DHT22;2361;49.540;8.390;2023-03-04T01:28:17;1.30;99.90
4695;DHT22;2361;49.540;8.390;2023-03-04T01:30:43;1.30;99.90
4695;DHT22;2361;49.540;8.390;2023-03-04T01:33:10;1.40;99.90
4695;DHT22;2361;49.540;8.390;2023-03-04T01:35:38;1.40;99.90
4695;DHT22;2361;49.540;8.390;2023-03-04T01:38:04;1.30;99.90
4695;DHT22;2361;49.540;8.390;2023-03-04T01:40:32;1.40;99.90
4695;DHT22;2361;49.540;8.390;2023-03-04T01:42:59;1.30;99.90
4695;DHT22;2361;49.540;8.390;2023-03-04T01:45:26;1.30;99.90
4695;DHT22;2361;49.540;8.390;2023-03-04T01:47:53;1.30;99.90
4695;DHT22;2361;49.540;8.390;2023-03-04T01:50:26;1.30;99.90
4695;DHT22;2361;49.540;8.390;2023-03-04T01:52:55;1.30;99.90
4695;DHT22;2361;49.540;8.390;2023-03-04T01:55:23;1.30;99.90
4695;DHT22;2361;49.540;8.390;2023-03-04T01:57:51;1.30;99.90
4695;DHT22;2361;49.540;8.390;2023-03-04T02:00:28;1.30;99.90
4695;DHT22;2361;49.540;8.390;2023-03-04T02:03:04;1.30;99.90
4695;DHT22;2361;49.540;8.390;2023-03-04T02:05:34;1.40;99.90
4695;DHT22;2361;49.540;8.390;2023-03-04T02:08:04;1.30;99.90
4695;DHT22;2361;49.540;8.390;2023-03-04T02:10:32;1.30;99.90
4695;DHT22;2361;49.540;8.390;2023-03-04T02:12:59;1.30;99.90
4695;DHT22;2361;49.540;8.390;2023-03-04T02:15:28;1.30;99.90
4695;DHT22;2361;49.540;8.390;2023-03-04T02:17:56;1.40;99.90
4695;DHT22;2361;49.540;8.390;2023-03-04T02:23:28;1.40;99.90
4695;DHT22;2361;49.540;8.390;2023-03-04T02:26:37;1.40;99.90
4695;DHT22;2361;49.540;8.390;2023-03-04T02:29:09;1.40;99.90
4695;DHT22;2361;49.540;8.390;2023-03-04T02:31:39;1.40;99.90
4695;DHT22;2361;49.540;8.390;2023-03-04T02:34:14;1.40;99.90
4695;DHT22;2361;49.540;8.390;2023-03-04T02:36:44;1.40;99.90
4695;DHT22;2361;49.540;8.390;2023-03-04T02:39:22;1.40;99.90
4695;DHT22;2361;49.540;8.390;2023-03-04T02:41:53;1.30;99.90
4695;DHT22;2361;49.540;8.390;2023-03-04T02:44:23;1.30;99.90
4695;DHT22;2361;49.540;8.390;2023-03-04T02:46:53;1.30;99.90
4695;DHT22;2361;49.540;8.390;2023-03-04T02:49:21;1.30;99.90
4695;DHT22;2361;49.540;8.390;2023-03-04T02:51:58;1.20;99.90
4695;DHT22;2361;49.540;8.390;2023-03-04T02:54:28;1.20;99.90
4695;DHT22;2361;49.540;8.390;2023-03-04T02:56:59;1.10;99.90
4695;DHT22;2361;49.540;8.390;2023-03-04T02:59:28;1.20;99.90
4695;DHT22;2361;49.540;8.390;2023-03-04T03:01:56;1.10;99.90
4695;DHT22;2361;49.540;8.390;2023-03-04T03:04:23;1.10;99.90
4695;DHT22;2361;49.540;8.390;2023-03-04T03:06:51;1.10;99.90
4695;DHT22;2361;49.540;8.390;2023-03-04T03:09:18;1.10;99.90
4695;DHT22;2361;49.540;8.390;2023-03-04T03:11:45;1.10;99.90
4695;DHT22;2361;49.540;8.390;2023-03-04T03:14:12;1.10;99.90
4695;DHT22;2361;49.540;8.390;2023-03-04T03:16:39;1.10;99.90
4695;DHT22;2361;49.540;8.390;2023-03-04T03:19:06;1.10;99.90
4695;DHT22;2361;49.540;8.390;2023-03-04T03:21:33;1.10;99.90
4695;DHT22;2361;49.540;8.390;2023-03-04T03:24:00;1.10;99.90
4695;DHT22;2361;49.540;8.390;2023-03-04T03:26:27;1.10;99.90
4695;DHT22;2361;49.540;8.390;2023-03-04T03:28:54;1.00;99.90
4695;DHT22;2361;49.540;8.390;2023-03-04T03:31:20;1.00;99.90
4695;DHT22;2361;49.540;8.390;2023-03-04T03:33:47;1.00;99.90
4695;DHT22;2361;49.540;8.390;2023-03-04T03:36:14;1.00;99.90
4695;DHT22;2361;49.540;8.390;2023-03-04T03:38:41;1.00;99.90
4695;DHT22;2361;49.540;8.390;2023-03-04T03:41:08;1.00;99.90
4695;DHT22;2361;49.540;8.390;2023-03-04T03:43:35;1.00;99.90
4695;DHT22;2361;49.540;8.390;2023-03-04T03:46:02;1.00;99.90
4695;DHT22;2361;49.540;8.390;2023-03-04T03:48:29;1.00;99.90
4695;DHT22;2361;49.540;8.390;2023-03-04T03:50:56;1.00;99.90
4695;DHT22;2361;49.540;8.390;2023-03-04T03:53:23;1.10;99.90
4695;DHT22;2361;49.540;8.390;2023-03-04T03:55:50;1.10;99.90
4695;DHT22;2361;49.540;8.390;2023-03-04T03:58:17;1.10;99.90
4695;DHT22;2361;49.540;8.390;2023-03-04T04:00:44;1.00;99.90
4695;DHT22;2361;49.540;8.390;2023-03-04T04:03:13;1.00;99.90
4695;DHT22;2361;49.540;8.390;2023-03-04T04:05:41;1.00;99.90
4695;DHT22;2361;49.540;8.390;2023-03-04T04:08:17;1.00;99.90
4695;DHT22;2361;49.540;8.390;2023-03-04T04:10:44;1.00;99.90
4695;DHT22;2361;49.540;8.390;2023-03-04T04:13:11;1.00;99.90
4695;DHT22;2361;49.540;8.390;2023-03-04T04:15:38;1.10;99.90
4695;DHT22;2361;49.540;8.390;2023-03-04T04:18:06;1.10;99.90
4695;DHT22;2361;49.540;8.390;2023-03-04T04:20:33;1.10;99.90
4695;DHT22;2361;49.540;8.390;2023-03-04T04:23:00;1.10;99.90
4695;DHT22;2361;49.540;8.390;2023-03-04T04:25:28;1.10;99.90
4695;DHT22;2361;49.540;8.390;2023-03-04T04:27:55;1.00;99.90
4695;DHT22;2361;49.540;8.390;2023-03-04T04:30:22;1.00;99.90
4695;DHT22;2361;49.540;8.390;2023-03-04T04:32:49;1.00;99.90
4695;DHT22;2361;49.540;8.390;2023-03-04T04:35:16;1.00;99.90
4695;DHT22;2361;49.540;8.390;2023-03-04T04:37:43;1.00;99.90
4695;DHT22;2361;49.540;8.390;2023-03-04T04:40:10;1.00;99.90
4695;DHT22;2361;49.540;8.390;2023-03-04T04:42:37;1.00;99.90
4695;DHT22;2361;49.540;8.390;2023-03-04T04:45:05;1.00;99.90
4695;DHT22;2361;49.540;8.390;2023-03-04T04:47:32;1.00;99.90
4695;DHT22;2361;49.540;8.390;2023-03-04T04:49:59;1.00;99.90
4695;DHT22;2361;49.540;8.390;2023-03-04T04:52:26;1.00;99.90
4695;DHT22;2361;49.540;8.390;2023-03-04T04:54:53;1.00;99.90
4695;DHT22;2361;49.540;8.390;2023-03-04T04:57:20;1.00;99.90
4695;DHT22;2361;49.540;8.390;2023-03-04T04:59:47;1.00;99.90
4695;DHT22;2361;49.540;8.390;2023-03-04T05:02:15;1.00;99.90
4695;DHT22;2361;49.540;8.390;2023-03-04T05:04:42;1.00;99.90
4695;DHT22;2361;49.540;8.390;2023-03-04T05:07:08;1.00;99.90
4695;DHT22;2361;49.540;8.390;2023-03-04T05:09:35;1.00;99.90
4695;DHT22;2361;49.540;8.390;2023-03-04T05:12:02;1.00;99.90
4695;DHT22;2361;49.540;8.390;2023-03-04T05:14:29;1.10;99.90
4695;DHT22;2361;49.540;8.390;2023-03-04T05:16:56;1.10;99.90
4695;DHT22;2361;49.540;8.390;2023-03-04T05:19:23;1.20;99.90
4695;DHT22;2361;49.540;8.390;2023-03-04T05:21:50;1.20;99.90
4695;DHT22;2361;49.540;8.390;2023-03-04T05:24:17;1.30;99.90
4695;DHT22;2361;49.540;8.390;2023-03-04T05:26:44;1.40;99.90
4695;DHT22;2361;49.540;8.390;2023-03-04T05:29:11;1.40;99.90
4695;DHT22;2361;49.540;8.390;2023-03-04T05:31:38;1.40;99.90
4695;DHT22;2361;49.540;8.390;2023-03-04T05:34:05;1.50;99.90
4695;DHT22;2361;49.540;8.390;2023-03-04T05:36:32;1.50;99.90
4695;DHT22;2361;49.540;8.390;2023-03-04T05:38:59;1.50;99.90
4695;DHT22;2361;49.540;8.390;2023-03-04T05:41:25;1.50;99.90
4695;DHT22;2361;49.540;8.390;2023-03-04T05:43:52;1.50;99.90
4695;DHT22;2361;49.540;8.390;2023-03-04T05:46:19;1.50;99.90
4695;DHT22;2361;49.540;8.390;2023-03-04T05:48:52;1.60;99.90
4695;DHT22;2361;49.540;8.390;2023-03-04T05:51:21;1.60;99.90
4695;DHT22;2361;49.540;8.390;2023-03-04T05:53:48;1.70;99.90
4695;DHT22;2361;49.540;8.390;2023-03-04T05:56:17;1.70;99.90
4695;DHT22;2361;49.540;8.390;2023-03-04T05:58:45;1.70;99.90
4695;DHT22;2361;49.540;8.390;2023-03-04T06:01:15;1.80;99.90
4695;DHT22;2361;49.540;8.390;2023-03-04T06:03:42;1.80;99.90
4695;DHT22;2361;49.540;8.390;2023-03-04T06:06:09;1.80;99.90
4695;DHT22;2361;49.540;8.390;2023-03-04T06:08:36;1.80;99.90
4695;DHT22;2361;49.540;8.390;2023-03-04T06:11:04;1.90;99.90
4695;DHT22;2361;49.540;8.390;2023-03-04T06:13:31;1.90;99.90
4695;DHT22;2361;49.540;8.390;2023-03-04T06:15:59;1.90;99.90
4695;DHT22;2361;49.540;8.390;2023-03-04T06:18:27;1.90;99.90
4695;DHT22;2361;49.540;8.390;2023-03-04T06:20:56;1.90;99.90
4695;DHT22;2361;49.540;8.390;2023-03-04T06:23:25;1.90;99.90
4695;DHT22;2361;49.540;8.390;2023-03-04T06:25:54;1.90;99.90
4695;DHT22;2361;49.540;8.390;2023-03-04T06:28:23;1.90;99.90
4695;DHT22;2361;49.540;8.390;2023-03-04T06:30:51;2.00;99.90
4695;DHT22;2361;49.540;8.390;2023-03-04T06:33:19;2.00;99.90
4695;DHT22;2361;49.540;8.390;2023-03-04T06:35:46;2.00;99.90
4695;DHT22;2361;49.540;8.390;2023-03-04T06:38:14;2.10;99.90
4695;DHT22;2361;49.540;8.390;2023-03-04T06:40:41;2.10;99.90
4695;DHT22;2361;49.540;8.390;2023-03-04T06:43:08;2.10;99.90
4695;DHT22;2361;49.540;8.390;2023-03-04T06:45:34;2.10;99.90
4695;DHT22;2361;49.540;8.390;2023-03-04T06:48:04;2.20;99.90
4695;DHT22;2361;49.540;8.390;2023-03-04T06:50:31;2.20;99.90
4695;DHT22;2361;49.540;8.390;2023-03-04T06:52:58;2.30;99.90
4695;DHT22;2361;49.540;8.390;2023-03-04T06:55:25;2.30;99.90
4695;DHT22;2361;49.540;8.390;2023-03-04T06:57:52;2.30;99.90
4695;DHT22;2361;49.540;8.390;2023-03-04T07:00:20;2.40;99.90
4695;DHT22;2361;49.540;8.390;2023-03-04T07:02:49;2.40;99.90
4695;DHT22;2361;49.540;8.390;2023-03-04T07:05:19;2.50;99.90
4695;DHT22;2361;49.540;8.390;2023-03-04T07:07:46;2.60;99.90
4695;DHT22;2361;49.540;8.390;2023-03-04T07:10:16;2.60;99.90
4695;DHT22;2361;49.540;8.390;2023-03-04T07:12:44;2.70;99.90
4695;DHT22;2361;49.540;8.390;2023-03-04T07:15:13;2.70;99.90
4695;DHT22;2361;49.540;8.390;2023-03-04T07:17:40;2.70;99.90
4695;DHT22;2361;49.540;8.390;2023-03-04T07:20:10;2.80;99.90
4695;DHT22;2361;49.540;8.390;2023-03-04T07:22:38;2.80;99.90
4695;DHT22;2361;49.540;8.390;2023-03-04T07:25:05;2.90;99.90
4695;DHT22;2361;49.540;8.390;2023-03-04T07:27:32;2.90;99.90
4695;DHT22;2361;49.540;8.390;2023-03-04T07:29:59;2.90;99.90
4695;DHT22;2361;49.540;8.390;2023-03-04T07:32:26;2.90;99.90
4695;DHT22;2361;49.540;8.390;2023-03-04T07:34:53;3.00;99.90
4695;DHT22;2361;49.540;8.390;2023-03-04T07:37:20;3.00;99.90
4695;DHT22;2361;49.540;8.390;2023-03-04T07:39:47;3.00;99.90
4695;DHT22;2361;49.540;8.390;2023-03-04T07:42:14;3.00;99.90
4695;DHT22;2361;49.540;8.390;2023-03-04T07:44:41;3.00;99.90
4695;DHT22;2361;49.540;8.390;2023-03-04T07:47:08;3.10;99.90
4695;DHT22;2361;49.540;8.390;2023-03-04T07:49:35;3.10;99.90
4695;DHT22;2361;49.540;8.390;2023-03-04T07:52:05;3.10;99.90
4695;DHT22;2361;49.540;8.390;2023-03-04T07:54:32;3.10;99.90
4695;DHT22;2361;49.540;8.390;2023-03-04T07:56:59;3.20;99.90
4695;DHT22;2361;49.540;8.390;2023-03-04T07:59:26;3.30;99.90
4695;DHT22;2361;49.540;8.390;2023-03-04T08:01:53;3.30;99.90
4695;DHT22;2361;49.540;8.390;2023-03-04T08:04:20;3.40;99.90
4695;DHT22;2361;49.540;8.390;2023-03-04T08:06:47;3.40;99.90
4695;DHT22;2361;49.540;8.390;2023-03-04T08:09:14;3.50;99.90
4695;DHT22;2361;49.540;8.390;2023-03-04T08:11:41;3.50;99.90
4695;DHT22;2361;49.540;8.390;2023-03-04T08:14:11;3.60;99.90
4695;DHT22;2361;49.540;8.390;2023-03-04T08:16:38;3.60;99.90
4695;DHT22;2361;49.540;8.390;2023-03-04T08:19:07;3.70;99.90
4695;DHT22;2361;49.540;8.390;2023-03-04T08:21:36;3.80;99.90
4695;DHT22;2361;49.540;8.390;2023-03-04T08:24:03;3.80;99.90
4695;DHT22;2361;49.540;8.390;2023-03-04T08:26:37;3.80;99.90
4695;DHT22;2361;49.540;8.390;2023-03-04T08:29:11;3.90;99.90
4695;DHT22;2361;49.540;8.390;2023-03-04T08:31:39;4.00;99.90
4695;DHT22;2361;49.540;8.390;2023-03-04T08:34:06;4.10;99.90
4695;DHT22;2361;49.540;8.390;2023-03-04T08:36:35;4.10;99.90
4695;DHT22;2361;49.540;8.390;2023-03-04T08:39:04;4.20;99.90
4695;DHT22;2361;49.540;8.390;2023-03-04T08:41:31;4.30;99.90
4695;DHT22;2361;49.540;8.390;2023-03-04T08:43:59;4.30;99.90
4695;DHT22;2361;49.540;8.390;2023-03-04T08:46:26;4.40;99.90
4695;DHT22;2361;49.540;8.390;2023-03-04T08:48:53;4.50;99.90
4695;DHT22;2361;49.540;8.390;2023-03-04T08:51:20;4.50;99.90
4695;DHT22;2361;49.540;8.390;2023-03-04T08:53:47;4.60;99.90
4695;DHT22;2361;49.540;8.390;2023-03-04T08:56:14;4.70;99.90
4695;DHT22;2361;49.540;8.390;2023-03-04T08:58:42;4.70;99.90
4695;DHT22;2361;49.540;8.390;2023-03-04T09:01:11;4.70;99.90
4695;DHT22;2361;49.540;8.390;2023-03-04T09:03:39;4.80;99.90
4695;DHT22;2361;49.540;8.390;2023-03-04T09:06:08;4.90;99.90
4695;DHT22;2361;49.540;8.390;2023-03-04T09:08:36;4.90;99.90
4695;DHT22;2361;49.540;8.390;2023-03-04T09:11:03;4.90;99.90
4695;DHT22;2361;49.540;8.390;2023-03-04T09:13:30;5.00;99.90
4695;DHT22;2361;49.540;8.390;2023-03-04T09:15:58;4.90;99.90
4695;DHT22;2361;49.540;8.390;2023-03-04T09:18:26;5.00;99.90
4695;DHT22;2361;49.540;8.390;2023-03-04T09:20:54;4.90;99.90
4695;DHT22;2361;49.540;8.390;2023-03-04T09:23:21;5.00;99.90
4695;DHT22;2361;49.540;8.390;2023-03-04T09:25:48;5.10;99.90
4695;DHT22;2361;49.540;8.390;2023-03-04T09:28:17;5.10;99.90
4695;DHT22;2361;49.540;8.390;2023-03-04T09:30:44;5.20;99.90
4695;DHT22;2361;49.540;8.390;2023-03-04T09:33:11;5.20;99.90
4695;DHT22;2361;49.540;8.390;2023-03-04T09:35:38;5.20;99.90
4695;DHT22;2361;49.540;8.390;2023-03-04T09:38:05;5.30;99.90
4695;DHT22;2361;49.540;8.390;2023-03-04T09:40:44;5.40;99.90
4695;DHT22;2361;49.540;8.390;2023-03-04T09:43:24;5.40;99.90
4695;DHT22;2361;49.540;8.390;2023-03-04T09:46:05;5.40;99.90
4695;DHT22;2361;49.540;8.390;2023-03-04T09:48:48;5.50;99.90
4695;DHT22;2361;49.540;8.390;2023-03-04T09:54:36;5.60;99.90
4695;DHT22;2361;49.540;8.390;2023-03-04T10:00:38;5.60;99.90
4695;DHT22;2361;49.540;8.390;2023-03-04T10:06:05;5.70;99.90
4695;DHT22;2361;49.540;8.390;2023-03-04T10:11:59;5.80;99.90
4695;DHT22;2361;49.540;8.390;2023-03-04T10:14:39;5.80;99.90
4695;DHT22;2361;49.540;8.390;2023-03-04T10:17:13;5.80;99.90
4695;DHT22;2361;49.540;8.390;2023-03-04T10:22:41;5.90;99.90
4695;DHT22;2361;49.540;8.390;2023-03-04T10:27:58;6.00;99.90
4695;DHT22;2361;49.540;8.390;2023-03-04T10:32:58;6.00;99.90
4695;DHT22;2361;49.540;8.390;2023-03-04T10:35:30;6.00;99.90
4695;DHT22;2361;49.540;8.390;2023-03-04T10:38:01;6.10;99.90
4695;DHT22;2361;49.540;8.390;2023-03-04T10:40:36;6.10;99.90
4695;DHT22;2361;49.540;8.390;2023-03-04T10:43:04;6.20;99.90
4695;DHT22;2361;49.540;8.390;2023-03-04T10:45:38;6.30;99.90
4695;DHT22;2361;49.540;8.390;2023-03-04T10:48:05;6.20;99.90
4695;DHT22;2361;49.540;8.390;2023-03-04T10:50:34;6.30;99.90
4695;DHT22;2361;49.540;8.390;2023-03-04T10:53:01;6.30;99.90
4695;DHT22;2361;49.540;8.390;2023-03-04T10:55:40;6.30;99.90
4695;DHT22;2361;49.540;8.390;2023-03-04T10:58:13;6.40;99.90
4695;DHT22;2361;49.540;8.390;2023-03-04T11:00:41;6.40;99.90
4695;DHT22;2361;49.540;8.390;2023-03-04T11:06:18;6.40;99.90
4695;DHT22;2361;49.540;8.390;2023-03-04T11:08:55;6.30;99.90
4695;DHT22;2361;49.540;8.390;2023-03-04T11:11:40;6.40;99.90
4695;DHT22;2361;49.540;8.390;2023-03-04T11:14:18;6.40;99.90
4695;DHT22;2361;49.540;8.390;2023-03-04T11:17:02;6.50;99.90
4695;DHT22;2361;49.540;8.390;2023-03-04T11:22:42;6.60;99.90
4695;DHT22;2361;49.540;8.390;2023-03-04T11:25:27;6.60;99.90
4695;DHT22;2361;49.540;8.390;2023-03-04T11:31:00;6.70;99.90
4695;DHT22;2361;49.540;8.390;2023-03-04T11:36:56;6.80;99.90
4695;DHT22;2361;49.540;8.390;2023-03-04T11:39:38;6.80;99.90
4695;DHT22;2361;49.540;8.390;2023-03-04T11:42:55;6.80;99.90
4695;DHT22;2361;49.540;8.390;2023-03-04T11:54:16;6.80;99.90
4695;DHT22;2361;49.540;8.390;2023-03-04T12:00:33;6.90;99.90
4695;DHT22;2361;49.540;8.390;2023-03-04T12:06:11;7.00;99.90
4695;DHT22;2361;49.540;8.390;2023-03-04T12:12:07;7.10;99.90
4695;DHT22;2361;49.540;8.390;2023-03-04T12:21:03;7.00;99.90
4695;DHT22;2361;49.540;8.390;2023-03-04T12:24:20;7.00;99.90
4695;DHT22;2361;49.540;8.390;2023-03-04T12:29:49;6.90;99.90
4695;DHT22;2361;49.540;8.390;2023-03-04T12:32:40;7.00;99.90
4695;DHT22;2361;49.540;8.390;2023-03-04T12:35:40;7.00;99.90
4695;DHT22;2361;49.540;8.390;2023-03-04T12:52:10;6.80;99.90
4695;DHT22;2361;49.540;8.390;2023-03-04T12:54:51;6.80;99.90
4695;DHT22;2361;49.540;8.390;2023-03-04T12:57:24;6.70;99.90
4695;DHT22;2361;49.540;8.390;2023-03-04T13:02:55;6.70;99.90
4695;DHT22;2361;49.540;8.390;2023-03-04T13:09:04;6.70;99.90
4695;DHT22;2361;49.540;8.390;2023-03-04T13:12:39;6.70;99.90
4695;DHT22;2361;49.540;8.390;2023-03-04T13:17:46;6.50;99.90
4695;DHT22;2361;49.540;8.390;2023-03-04T13:20:35;6.50;99.90
4695;DHT22;2361;49.540;8.390;2023-03-04T13:36:32;6.30;99.90
4695;DHT22;2361;49.540;8.390;2023-03-04T13:39:23;6.30;99.90
4695;DHT22;2361;49.540;8.390;2023-03-04T13:41:54;6.30;99.90
4695;DHT22;2361;49.540;8.390;2023-03-04T13:47:23;6.30;99.90
4695;DHT22;2361;49.540;8.390;2023-03-04T13:50:19;6.20;99.90
4695;DHT22;2361;49.540;8.390;2023-03-04T13:52:48;6.20;99.90
4695;DHT22;2361;49.540;8.390;2023-03-04T13:58:01;6.30;99.90
4695;DHT22;2361;49.540;8.390;2023-03-04T14:00:46;6.40;99.90
4695;DHT22;2361;49.540;8.390;2023-03-04T14:03:26;6.40;99.90
4695;DHT22;2361;49.540;8.390;2023-03-04T14:06:18;6.50;99.90
4695;DHT22;2361;49.540;8.390;2023-03-04T14:08:49;6.60;99.90
4695;DHT22;2361;49.540;8.390;2023-03-04T14:11:27;6.60;99.90
4695;DHT22;2361;49.540;8.390;2023-03-04T14:13:59;6.60;99.90
4695;DHT22;2361;49.540;8.390;2023-03-04T14:16:34;6.60;99.90
4695;DHT22;2361;49.540;8.390;2023-03-04T14:19:11;6.60;99.90
4695;DHT22;2361;49.540;8.390;2023-03-04T14:21:44;6.70;99.90
4695;DHT22;2361;49.540;8.390;2023-03-04T14:24:14;6.70;99.90
4695;DHT22;2361;49.540;8.390;2023-03-04T14:26:42;6.80;99.90
4695;DHT22;2361;49.540;8.390;2023-03-04T14:29:29;6.80;99.90
4695;DHT22;2361;49.540;8.390;2023-03-04T14:31:59;6.80;99.90
4695;DHT22;2361;49.540;8.390;2023-03-04T14:34:31;6.90;99.90
4695;DHT22;2361;49.540;8.390;2023-03-04T14:37:15;7.00;99.90
4695;DHT22;2361;49.540;8.390;2023-03-04T14:39:51;7.10;99.90
4695;DHT22;2361;49.540;8.390;2023-03-04T14:42:25;7.20;99.90
4695;DHT22;2361;49.540;8.390;2023-03-04T14:45:02;7.30;99.90
4695;DHT22;2361;49.540;8.390;2023-03-04T14:47:39;7.40;99.90
4695;DHT22;2361;49.540;8.390;2023-03-04T14:50:13;7.40;99.90
4695;DHT22;2361;49.540;8.390;2023-03-04T14:52:44;7.40;99.90
4695;DHT22;2361;49.540;8.390;2023-03-04T14:57:42;7.50;99.90
4695;DHT22;2361;49.540;8.390;2023-03-04T15:00:29;7.40;99.90
4695;DHT22;2361;49.540;8.390;2023-03-04T15:03:03;7.50;99.90
4695;DHT22;2361;49.540;8.390;2023-03-04T15:05:52;7.40;99.90
4695;DHT22;2361;49.540;8.390;2023-03-04T15:08:24;7.40;99.90
4695;DHT22;2361;49.540;8.390;2023-03-04T15:10:58;7.40;99.90
4695;DHT22;2361;49.540;8.390;2023-03-04T15:13:44;7.40;99.90
4695;DHT22;2361;49.540;8.390;2023-03-04T15:16:17;7.40;99.90
4695;DHT22;2361;49.540;8.390;2023-03-04T15:19:02;7.40;99.90
4695;DHT22;2361;49.540;8.390;2023-03-04T15:21:34;7.40;99.90
4695;DHT22;2361;49.540;8.390;2023-03-04T15:24:04;7.40;99.90
4695;DHT22;2361;49.540;8.390;2023-03-04T15:26:33;7.40;99.90
4695;DHT22;2361;49.540;8.390;2023-03-04T15:29:15;7.40;99.90
4695;DHT22;2361;49.540;8.390;2023-03-04T15:31:44;7.50;99.90
4695;DHT22;2361;49.540;8.390;2023-03-04T15:34:16;7.40;99.90
4695;DHT22;2361;49.540;8.390;2023-03-04T15:36:45;7.50;99.90
4695;DHT22;2361;49.540;8.390;2023-03-04T15:39:16;7.50;99.90
4695;DHT22;2361;49.540;8.390;2023-03-04T15:41:43;7.40;99.90
4695;DHT22;2361;49.540;8.390;2023-03-04T15:44:12;7.40;99.90
4695;DHT22;2361;49.540;8.390;2023-03-04T15:46:39;7.30;99.90
4695;DHT22;2361;49.540;8.390;2023-03-04T15:49:06;7.30;99.90
4695;DHT22;2361;49.540;8.390;2023-03-04T15:51:33;7.30;99.90
4695;DHT22;2361;49.540;8.390;2023-03-04T15:54:01;7.30;99.90
4695;DHT22;2361;49.540;8.390;2023-03-04T15:56:31;7.20;99.90
4695;DHT22;2361;49.540;8.390;2023-03-04T15:59:02;7.20;99.90
4695;DHT22;2361;49.540;8.390;2023-03-04T16:01:32;7.30;99.90
4695;DHT22;2361;49.540;8.390;2023-03-04T16:03:59;7.20;99.90
4695;DHT22;2361;49.540;8.390;2023-03-04T16:06:29;7.20;99.90
4695;DHT22;2361;49.540;8.390;2023-03-04T16:09:00;7.10;99.90
4695;DHT22;2361;49.540;8.390;2023-03-04T16:11:29;7.20;99.90
4695;DHT22;2361;49.540;8.390;2023-03-04T16:13:56;7.10;99.90
4695;DHT22;2361;49.540;8.390;2023-03-04T16:16:23;7.10;99.90
4695;DHT22;2361;49.540;8.390;2023-03-04T16:18:50;7.10;99.90
4695;DHT22;2361;49.540;8.390;2023-03-04T16:21:19;7.10;99.90
4695;DHT22;2361;49.540;8.390;2023-03-04T16:23:50;7.10;99.90
4695;DHT22;2361;49.540;8.390;2023-03-04T16:26:20;7.10;99.90
4695;DHT22;2361;49.540;8.390;2023-03-04T16:28:49;7.00;99.90
4695;DHT22;2361;49.540;8.390;2023-03-04T16:31:17;7.00;99.90
4695;DHT22;2361;49.540;8.390;2023-03-04T16:33:44;7.00;99.90
4695;DHT22;2361;49.540;8.390;2023-03-04T16:36:18;7.00;99.90
4695;DHT22;2361;49.540;8.390;2023-03-04T16:38:48;7.00;99.90
4695;DHT22;2361;49.540;8.390;2023-03-04T16:41:16;7.00;99.90
4695;DHT22;2361;49.540;8.390;2023-03-04T16:43:46;6.90;99.90
4695;DHT22;2361;49.540;8.390;2023-03-04T16:46:13;6.90;99.90
4695;DHT22;2361;49.540;8.390;2023-03-04T16:48:40;6.90;99.90
4695;DHT22;2361;49.540;8.390;2023-03-04T16:51:13;7.00;99.90
4695;DHT22;2361;49.540;8.390;2023-03-04T16:53:47;6.90;99.90
4695;DHT22;2361;49.540;8.390;2023-03-04T16:56:17;7.00;99.90
4695;DHT22;2361;49.540;8.390;2023-03-04T16:58:45;7.00;99.90
4695;DHT22;2361;49.540;8.390;2023-03-04T17:01:27;6.90;99.90
4695;DHT22;2361;49.540;8.390;2023-03-04T17:03:55;7.00;99.90
4695;DHT22;2361;49.540;8.390;2023-03-04T17:06:22;6.90;99.90
4695;DHT22;2361;49.540;8.390;2023-03-04T17:08:50;6.90;99.90
4695;DHT22;2361;49.540;8.390;2023-03-04T17:11:22;6.90;99.90
4695;DHT22;2361;49.540;8.390;2023-03-04T17:13:49;6.90;99.90
4695;DHT22;2361;49.540;8.390;2023-03-04T17:16:16;6.90;99.90
4695;DHT22;2361;49.540;8.390;2023-03-04T17:18:44;6.90;99.90
4695;DHT22;2361;49.540;8.390;2023-03-04T17:21:15;6.90;99.90
4695;DHT22;2361;49.540;8.390;2023-03-04T17:23:44;6.90;99.90
4695;DHT22;2361;49.540;8.390;2023-03-04T17:26:11;6.90;99.90
4695;DHT22;2361;49.540;8.390;2023-03-04T17:28:40;6.90;99.90
4695;DHT22;2361;49.540;8.390;2023-03-04T17:31:09;6.90;99.90
4695;DHT22;2361;49.540;8.390;2023-03-04T17:33:36;6.90;99.90
4695;DHT22;2361;49.540;8.390;2023-03-04T17:36:04;6.90;99.90
4695;DHT22;2361;49.540;8.390;2023-03-04T17:38:31;6.90;99.90
4695;DHT22;2361;49.540;8.390;2023-03-04T17:41:11;6.90;99.90
4695;DHT22;2361;49.540;8.390;2023-03-04T17:43:49;6.90;99.90
4695;DHT22;2361;49.540;8.390;2023-03-04T17:46:19;6.90;99.90
4695;DHT22;2361;49.540;8.390;2023-03-04T17:48:47;6.90;99.90
4695;DHT22;2361;49.540;8.390;2023-03-04T17:51:15;6.90;99.90
4695;DHT22;2361;49.540;8.390;2023-03-04T17:53:41;6.80;99.90
4695;DHT22;2361;49.540;8.390;2023-03-04T17:56:10;6.80;99.90
4695;DHT22;2361;49.540;8.390;2023-03-04T17:58:38;6.80;99.90
4695;DHT22;2361;49.540;8.390;2023-03-04T18:01:16;6.80;99.90
4695;DHT22;2361;49.540;8.390;2023-03-04T18:03:45;6.80;99.90
4695;DHT22;2361;49.540;8.390;2023-03-04T18:06:12;6.70;99.90
4695;DHT22;2361;49.540;8.390;2023-03-04T18:08:39;6.70;99.90
4695;DHT22;2361;49.540;8.390;2023-03-04T18:11:06;6.70;99.90
4695;DHT22;2361;49.540;8.390;2023-03-04T18:13:42;6.70;99.90
4695;DHT22;2361;49.540;8.390;2023-03-04T18:16:11;6.70;99.90
4695;DHT22;2361;49.540;8.390;2023-03-04T18:18:41;6.70;99.90
4695;DHT22;2361;49.540;8.390;2023-03-04T18:21:08;6.60;99.90
4695;DHT22;2361;49.540;8.390;2023-03-04T18:23:36;6.70;99.90
4695;DHT22;2361;49.540;8.390;2023-03-04T18:26:03;6.70;99.90
4695;DHT22;2361;49.540;8.390;2023-03-04T18:28:30;6.60;99.90